sensor_id;sensor_type;location;lat;lon;timestamp;temperature;humidity
36864;DHT22;22793;51.148;6.948;2023-05-07T10:35:04;24.30;85.50
36864;DHT22;22793;51.148;6.948;2023-05-07T10:40:48;24.40;85.00
36864;DHT22;22793;51.148;6.948;2023-05-07T10:46:20;24.50;87.50
36864;DHT22;22793;51.148;6.948;2023-05-07T10:54:38;24.20;87.70
36864;DHT22;22793;51.148;6.948;2023-05-07T10:57:33;24.30;87.80
36864;DHT22;22793;51.148;6.948;2023-05-07T11:05:29;24.30;87.90
36864;DHT22;22793;51.148;6.948;2023-05-07T11:10:21;24.30;88.40
36864;DHT22;22793;51.148;6.948;2023-05-07T11:15:14;24.30;87.90
36864;DHT22;22793;51.148;6.948;2023-05-07T11:18:59;24.30;87.80
36864;DHT22;22793;51.148;6.948;2023-05-07T11:21:39;24.50;88.50
36864;DHT22;22793;51.148;6.948;2023-05-07T11:24:09;24.60;88.10
36864;DHT22;22793;51.148;6.948;2023-05-07T11:26:46;24.70;87.40
36864;DHT22;22793;51.148;6.948;2023-05-07T11:29:17;24.80;87.00
36864;DHT22;22793;51.148;6.948;2023-05-07T11:31:43;24.90;86.50
36864;DHT22;22793;51.148;6.948;2023-05-07T11:34:14;25.00;86.20
36864;DHT22;22793;51.148;6.948;2023-05-07T11:36:42;24.90;86.00
36864;DHT22;22793;51.148;6.948;2023-05-07T11:39:29;25.00;85.60
36864;DHT22;22793;51.148;6.948;2023-05-07T11:41:56;25.00;85.30
36864;DHT22;22793;51.148;6.948;2023-05-07T11:44:22;25.00;85.00
36864;DHT22;22793;51.148;6.948;2023-05-07T11:46:48;25.10;84.80
36864;DHT22;22793;51.148;6.948;2023-05-07T11:49:14;25.10;85.10
36864;DHT22;22793;51.148;6.948;2023-05-07T11:51:41;25.10;84.70
36864;DHT22;22793;51.148;6.948;2023-05-07T11:54:08;25.10;84.40
36864;DHT22;22793;51.148;6.948;2023-05-07T11:56:36;25.10;84.30
36864;DHT22;22793;51.148;6.948;2023-05-07T11:59:02;25.10;84.40
36864;DHT22;22793;51.148;6.948;2023-05-07T12:52:59;24.10;91.40
36864;DHT22;22793;51.148;6.948;2023-05-07T13:13:54;24.80;90.00
36864;DHT22;22793;51.148;6.948;2023-05-07T13:16:19;24.80;89.80
36864;DHT22;22793;51.148;6.948;2023-05-07T13:18:45;24.80;89.50
36864;DHT22;22793;51.148;6.948;2023-05-07T13:21:11;24.80;89.00
36864;DHT22;22793;51.148;6.948;2023-05-07T13:23:38;24.90;89.20
36864;DHT22;22793;51.148;6.948;2023-05-07T13:26:04;24.90;89.10
36864;DHT22;22793;51.148;6.948;2023-05-07T13:28:29;24.90;88.80
36864;DHT22;22793;51.148;6.948;2023-05-07T13:30:55;24.90;88.70
36864;DHT22;22793;51.148;6.948;2023-05-07T13:33:21;24.90;88.60
36864;DHT22;22793;51.148;6.948;2023-05-07T13:35:46;24.90;88.80
36864;DHT22;22793;51.148;6.948;2023-05-07T13:38:12;24.90;88.60
36864;DHT22;22793;51.148;6.948;2023-05-07T13:40:38;25.00;88.60
36864;DHT22;22793;51.148;6.948;2023-05-07T13:43:05;25.00;88.90
36864;DHT22;22793;51.148;6.948;2023-05-07T13:45:31;24.90;89.00
36864;DHT22;22793;51.148;6.948;2023-05-07T13:47:57;24.90;88.20
36864;DHT22;22793;51.148;6.948;2023-05-07T13:50:23;24.90;86.90
36864;DHT22;22793;51.148;6.948;2023-05-07T13:52:48;24.90;86.00
36864;DHT22;22793;51.148;6.948;2023-05-07T13:55:20;24.90;85.60
36864;DHT22;22793;51.148;6.948;2023-05-07T13:57:47;24.90;85.00
36864;DHT22;22793;51.148;6.948;2023-05-07T14:00:13;24.80;84.50
36864;DHT22;22793;51.148;6.948;2023-05-07T14:02:40;24.80;84.30
36864;DHT22;22793;51.148;6.948;2023-05-07T14:05:06;24.80;84.30
36864;DHT22;22793;51.148;6.948;2023-05-07T14:07:32;24.80;84.70
36864;DHT22;22793;51.148;6.948;2023-05-07T14:09:58;24.70;85.00
36864;DHT22;22793;51.148;6.948;2023-05-07T14:12:24;24.70;84.70
36864;DHT22;22793;51.148;6.948;2023-05-07T14:14:49;24.70;84.80
36864;DHT22;22793;51.148;6.948;2023-05-07T14:17:18;24.70;84.70
36864;DHT22;22793;51.148;6.948;2023-05-07T14:21:54;24.60;85.10
36864;DHT22;22793;51.148;6.948;2023-05-07T14:26:01;24.90;83.80
36864;DHT22;22793;51.148;6.948;2023-05-07T15:18:27;21.40;99.90
36864;DHT22;22793;51.148;6.948;2023-05-07T15:20:52;21.40;99.90
36864;DHT22;22793;51.148;6.948;2023-05-07T15:23:18;21.30;99.90
36864;DHT22;22793;51.148;6.948;2023-05-07T15:25:44;21.20;99.90
36864;DHT22;22793;51.148;6.948;2023-05-07T15:28:09;21.20;99.90
36864;DHT22;22793;51.148;6.948;2023-05-07T15:30:35;21.10;99.90
36864;DHT22;22793;51.148;6.948;2023-05-07T15:33:01;21.00;99.90
36864;DHT22;22793;51.148;6.948;2023-05-07T15:35:27;21.00;99.90
36864;DHT22;22793;51.148;6.948;2023-05-07T15:37:53;21.00;99.90
36864;DHT22;22793;51.148;6.948;2023-05-07T15:40:19;20.90;99.90
36864;DHT22;22793;51.148;6.948;2023-05-07T15:42:45;20.90;99.90
36864;DHT22;22793;51.148;6.948;2023-05-07T15:45:11;20.90;99.90
36864;DHT22;22793;51.148;6.948;2023-05-07T15:47:36;20.90;99.90
36864;DHT22;22793;51.148;6.948;2023-05-07T15:50:02;20.80;99.90
36864;DHT22;22793;51.148;6.948;2023-05-07T15:52:28;20.80;99.90
36864;DHT22;22793;51.148;6.948;2023-05-07T15:54:55;20.80;99.90
36864;DHT22;22793;51.148;6.948;2023-05-07T15:57:21;20.80;99.90
36864;DHT22;22793;51.148;6.948;2023-05-07T15:59:47;20.80;99.90
36864;DHT22;22793;51.148;6.948;2023-05-07T16:02:13;20.80;99.90
36864;DHT22;22793;51.148;6.948;2023-05-07T16:04:39;20.80;99.90
36864;DHT22;22793;51.148;6.948;2023-05-07T16:07:04;20.80;99.90
36864;DHT22;22793;51.148;6.948;2023-05-07T16:09:30;20.80;99.90
36864;DHT22;22793;51.148;6.948;2023-05-07T16:11:56;20.80;99.90
36864;DHT22;22793;51.148;6.948;2023-05-07T16:14:22;20.80;99.90
36864;DHT22;22793;51.148;6.948;2023-05-07T16:16:48;20.70;99.90
36864;DHT22;22793;51.148;6.948;2023-05-07T16:19:14;20.70;99.90
36864;DHT22;22793;51.148;6.948;2023-05-07T16:21:39;20.70;99.90
36864;DHT22;22793;51.148;6.948;2023-05-07T16:24:05;20.70;99.90
36864;DHT22;22793;51.148;6.948;2023-05-07T16:26:31;20.70;99.90
36864;DHT22;22793;51.148;6.948;2023-05-07T16:28:56;20.70;99.90
36864;DHT22;22793;51.148;6.948;2023-05-07T16:31:23;20.80;99.90
36864;DHT22;22793;51.148;6.948;2023-05-07T16:33:50;20.70;99.90
36864;DHT22;22793;51.148;6.948;2023-05-07T16:36:15;20.70;99.90
36864;DHT22;22793;51.148;6.948;2023-05-07T16:38:41;20.70;99.90
36864;DHT22;22793;51.148;6.948;2023-05-07T16:41:09;20.70;99.90
36864;DHT22;22793;51.148;6.948;2023-05-07T16:43:35;20.80;99.90
36864;DHT22;22793;51.148;6.948;2023-05-07T16:46:03;20.80;99.90
36864;DHT22;22793;51.148;6.948;2023-05-07T16:48:29;20.80;99.90
36864;DHT22;22793;51.148;6.948;2023-05-07T16:50:57;20.80;99.90
36864;DHT22;22793;51.148;6.948;2023-05-07T16:53:22;20.80;99.90
36864;DHT22;22793;51.148;6.948;2023-05-07T16:55:48;20.80;99.90
36864;DHT22;22793;51.148;6.948;2023-05-07T16:58:13;20.80;99.90
36864;DHT22;22793;51.148;6.948;2023-05-07T17:00:39;20.80;99.90
36864;DHT22;22793;51.148;6.948;2023-05-07T17:03:05;20.80;99.90
36864;DHT22;22793;51.148;6.948;2023-05-07T17:05:31;20.80;99.90
36864;DHT22;22793;51.148;6.948;2023-05-07T17:07:56;20.80;99.90
36864;DHT22;22793;51.148;6.948;2023-05-07T17:10:23;20.80;99.90
36864;DHT22;22793;51.148;6.948;2023-05-07T17:12:50;20.80;99.90
36864;DHT22;22793;51.148;6.948;2023-05-07T17:15:15;20.80;99.90
36864;DHT22;22793;51.148;6.948;2023-05-07T17:17:41;20.80;99.90
36864;DHT22;22793;51.148;6.948;2023-05-07T17:20:07;20.80;99.90
36864;DHT22;22793;51.148;6.948;2023-05-07T17:22:33;20.90;99.90
36864;DHT22;22793;51.148;6.948;2023-05-07T17:24:58;21.30;99.90
36864;DHT22;22793;51.148;6.948;2023-05-07T17:27:25;22.20;99.90
36864;DHT22;22793;51.148;6.948;2023-05-07T17:29:51;23.80;99.90
36864;DHT22;22793;51.148;6.948;2023-05-07T17:32:16;24.20;99.90
36864;DHT22;22793;51.148;6.948;2023-05-07T17:34:42;25.10;99.90
36864;DHT22;22793;51.148;6.948;2023-05-07T17:37:08;25.70;99.90
36864;DHT22;22793;51.148;6.948;2023-05-07T17:39:33;26.80;99.90
36864;DHT22;22793;51.148;6.948;2023-05-07T17:41:59;26.20;99.90
36864;DHT22;22793;51.148;6.948;2023-05-07T17:44:25;26.00;97.60
36864;DHT22;22793;51.148;6.948;2023-05-07T17:46:50;25.90;95.30
36864;DHT22;22793;51.148;6.948;2023-05-07T17:49:16;25.60;94.90
36864;DHT22;22793;51.148;6.948;2023-05-07T17:51:42;25.20;95.90
36864;DHT22;22793;51.148;6.948;2023-05-07T17:54:08;24.80;96.90
36864;DHT22;22793;51.148;6.948;2023-05-07T17:56:33;24.40;98.40
36864;DHT22;22793;51.148;6.948;2023-05-07T17:58:59;24.20;99.90
36864;DHT22;22793;51.148;6.948;2023-05-07T18:01:25;23.90;99.90
36864;DHT22;22793;51.148;6.948;2023-05-07T18:03:50;23.60;99.90
36864;DHT22;22793;51.148;6.948;2023-05-07T18:06:16;23.40;99.90
36864;DHT22;22793;51.148;6.948;2023-05-07T18:08:46;23.10;99.90
36864;DHT22;22793;51.148;6.948;2023-05-07T18:11:12;23.00;99.90
36864;DHT22;22793;51.148;6.948;2023-05-07T18:13:38;22.80;99.90
36864;DHT22;22793;51.148;6.948;2023-05-07T18:16:04;22.70;99.90
36864;DHT22;22793;51.148;6.948;2023-05-07T18:18:29;22.50;99.90
36864;DHT22;22793;51.148;6.948;2023-05-07T18:20:57;22.40;99.90
36864;DHT22;22793;51.148;6.948;2023-05-07T18:23:25;22.20;99.90
36864;DHT22;22793;51.148;6.948;2023-05-07T18:25:51;22.10;99.90
36864;DHT22;22793;51.148;6.948;2023-05-07T18:28:16;22.00;99.90
36864;DHT22;22793;51.148;6.948;2023-05-07T18:30:42;21.90;99.90
36864;DHT22;22793;51.148;6.948;2023-05-07T18:33:08;21.80;99.90
36864;DHT22;22793;51.148;6.948;2023-05-07T18:35:36;21.70;99.90
36864;DHT22;22793;51.148;6.948;2023-05-07T18:38:04;21.60;99.90
36864;DHT22;22793;51.148;6.948;2023-05-07T18:40:29;21.60;99.90
36864;DHT22;22793;51.148;6.948;2023-05-07T18:43:01;21.50;99.90
36864;DHT22;22793;51.148;6.948;2023-05-07T18:45:32;21.40;99.90
36864;DHT22;22793;51.148;6.948;2023-05-07T18:47:58;21.30;99.90
36864;DHT22;22793;51.148;6.948;2023-05-07T18:50:23;21.20;99.90
36864;DHT22;22793;51.148;6.948;2023-05-07T18:52:49;21.20;99.90
36864;DHT22;22793;51.148;6.948;2023-05-07T18:55:15;21.20;99.90
36864;DHT22;22793;51.148;6.948;2023-05-07T18:57:41;21.10;99.90
36864;DHT22;22793;51.148;6.948;2023-05-07T19:00:09;21.10;99.90
36864;DHT22;22793;51.148;6.948;2023-05-07T19:02:37;21.00;99.90
36864;DHT22;22793;51.148;6.948;2023-05-07T19:05:03;21.00;99.90
36864;DHT22;22793;51.148;6.948;2023-05-07T19:07:28;21.00;99.90
36864;DHT22;22793;51.148;6.948;2023-05-07T19:09:55;20.90;99.90
36864;DHT22;22793;51.148;6.948;2023-05-07T19:12:21;20.90;99.90
36864;DHT22;22793;51.148;6.948;2023-05-07T19:14:46;20.90;99.90
36864;DHT22;22793;51.148;6.948;2023-05-07T19:17:13;20.90;99.90
36864;DHT22;22793;51.148;6.948;2023-05-07T19:19:38;20.80;99.90
36864;DHT22;22793;51.148;6.948;2023-05-07T19:22:04;20.80;99.90
36864;DHT22;22793;51.148;6.948;2023-05-07T19:24:30;20.80;99.90
36864;DHT22;22793;51.148;6.948;2023-05-07T19:26:55;20.80;99.90
36864;DHT22;22793;51.148;6.948;2023-05-07T19:29:21;20.80;99.90
36864;DHT22;22793;51.148;6.948;2023-05-07T19:31:46;20.80;99.90
36864;DHT22;22793;51.148;6.948;2023-05-07T19:34:12;20.80;99.90
36864;DHT22;22793;51.148;6.948;2023-05-07T19:36:38;20.80;99.90
36864;DHT22;22793;51.148;6.948;2023-05-07T19:39:04;20.80;99.90
36864;DHT22;22793;51.148;6.948;2023-05-07T19:43:32;20.90;99.90
36864;DHT22;22793;51.148;6.948;2023-05-07T19:46:03;21.00;99.90
36864;DHT22;22793;51.148;6.948;2023-05-07T19:48:29;21.10;99.90
36864;DHT22;22793;51.148;6.948;2023-05-07T19:50:54;21.10;99.90
36864;DHT22;22793;51.148;6.948;2023-05-07T19:53:20;21.10;99.90
36864;DHT22;22793;51.148;6.948;2023-05-07T19:55:46;21.00;99.90
36864;DHT22;22793;51.148;6.948;2023-05-07T19:58:11;21.00;99.90
36864;DHT22;22793;51.148;6.948;2023-05-07T20:00:38;21.00;99.90
36864;DHT22;22793;51.148;6.948;2023-05-07T20:03:03;21.00;99.90
36864;DHT22;22793;51.148;6.948;2023-05-07T20:05:29;20.90;99.90
36864;DHT22;22793;51.148;6.948;2023-05-07T20:07:54;20.90;99.90
36864;DHT22;22793;51.148;6.948;2023-05-07T20:10:21;20.90;99.90
36864;DHT22;22793;51.148;6.948;2023-05-07T20:12:47;20.90;99.90
36864;DHT22;22793;51.148;6.948;2023-05-07T20:15:12;20.90;99.90
36864;DHT22;22793;51.148;6.948;2023-05-07T20:17:38;20.90;99.90
36864;DHT22;22793;51.148;6.948;2023-05-07T20:20:04;20.90;99.90
36864;DHT22;22793;51.148;6.948;2023-05-07T20:22:30;20.80;99.90
36864;DHT22;22793;51.148;6.948;2023-05-07T20:24:56;20.80;99.90
36864;DHT22;22793;51.148;6.948;2023-05-07T20:27:22;20.80;99.90
36864;DHT22;22793;51.148;6.948;2023-05-07T20:29:50;20.80;99.90
36864;DHT22;22793;51.148;6.948;2023-05-07T20:32:16;20.80;99.90
36864;DHT22;22793;51.148;6.948;2023-05-07T20:34:44;20.70;99.90
36864;DHT22;22793;51.148;6.948;2023-05-07T20:37:10;20.70;99.90
36864;DHT22;22793;51.148;6.948;2023-05-07T20:39:41;20.70;99.90
36864;DHT22;22793;51.148;6.948;2023-05-07T20:42:07;20.70;99.90
36864;DHT22;22793;51.148;6.948;2023-05-07T20:44:33;20.80;99.90
36864;DHT22;22793;51.148;6.948;2023-05-07T20:46:59;20.70;99.90
36864;DHT22;22793;51.148;6.948;2023-05-07T20:49:24;20.70;99.90
36864;DHT22;22793;51.148;6.948;2023-05-07T20:51:50;20.70;99.90
36864;DHT22;22793;51.148;6.948;2023-05-07T20:54:16;20.70;99.90
36864;DHT22;22793;51.148;6.948;2023-05-07T20:56:42;20.70;99.90
36864;DHT22;22793;51.148;6.948;2023-05-07T20:59:08;20.70;99.90
36864;DHT22;22793;51.148;6.948;2023-05-07T21:01:33;20.70;99.90
36864;DHT22;22793;51.148;6.948;2023-05-07T21:04:00;20.60;99.90
36864;DHT22;22793;51.148;6.948;2023-05-07T21:06:26;20.60;99.90
36864;DHT22;22793;51.148;6.948;2023-05-07T21:08:52;20.60;99.90
36864;DHT22;22793;51.148;6.948;2023-05-07T21:11:18;20.60;99.90
36864;DHT22;22793;51.148;6.948;2023-05-07T21:13:43;20.60;99.90
36864;DHT22;22793;51.148;6.948;2023-05-07T21:16:09;20.60;99.90
36864;DHT22;22793;51.148;6.948;2023-05-07T21:18:35;20.60;99.90
36864;DHT22;22793;51.148;6.948;2023-05-07T21:21:01;20.60;99.90
36864;DHT22;22793;51.148;6.948;2023-05-07T21:23:31;20.60;99.90
36864;DHT22;22793;51.148;6.948;2023-05-07T21:25:56;20.70;99.90
36864;DHT22;22793;51.148;6.948;2023-05-07T21:28:22;20.60;99.90
36864;DHT22;22793;51.148;6.948;2023-05-07T21:30:47;20.60;99.90
36864;DHT22;22793;51.148;6.948;2023-05-07T21:33:13;20.60;99.90
36864;DHT22;22793;51.148;6.948;2023-05-07T21:35:38;20.60;99.90
36864;DHT22;22793;51.148;6.948;2023-05-07T21:38:04;20.60;99.90
36864;DHT22;22793;51.148;6.948;2023-05-07T21:40:30;20.60;99.90
36864;DHT22;22793;51.148;6.948;2023-05-07T21:42:57;20.60;99.90
36864;DHT22;22793;51.148;6.948;2023-05-07T21:45:24;20.60;99.90
36864;DHT22;22793;51.148;6.948;2023-05-07T21:47:50;20.60;99.90
36864;DHT22;22793;51.148;6.948;2023-05-07T21:50:16;20.60;99.90
36864;DHT22;22793;51.148;6.948;2023-05-07T21:52:41;20.60;99.90
36864;DHT22;22793;51.148;6.948;2023-05-07T21:55:07;20.60;99.90
36864;DHT22;22793;51.148;6.948;2023-05-07T21:57:33;20.60;99.90
36864;DHT22;22793;51.148;6.948;2023-05-07T22:00:00;20.60;99.90
36864;DHT22;22793;51.148;6.948;2023-05-07T22:02:26;20.70;99.90
36864;DHT22;22793;51.148;6.948;2023-05-07T22:04:52;20.70;99.90
36864;DHT22;22793;51.148;6.948;2023-05-07T22:07:17;20.70;99.90
36864;DHT22;22793;51.148;6.948;2023-05-07T22:09:43;20.70;99.90
36864;DHT22;22793;51.148;6.948;2023-05-07T22:12:08;20.60;99.90
36864;DHT22;22793;51.148;6.948;2023-05-07T22:14:34;20.60;99.90
36864;DHT22;22793;51.148;6.948;2023-05-07T22:17:00;20.70;99.90
36864;DHT22;22793;51.148;6.948;2023-05-07T22:19:25;20.60;99.90
36864;DHT22;22793;51.148;6.948;2023-05-07T22:21:51;20.60;99.90
36864;DHT22;22793;51.148;6.948;2023-05-07T22:24:16;20.60;99.90
36864;DHT22;22793;51.148;6.948;2023-05-07T22:26:42;20.60;99.90
36864;DHT22;22793;51.148;6.948;2023-05-07T22:29:08;20.60;99.90
36864;DHT22;22793;51.148;6.948;2023-05-07T22:31:33;20.60;99.90
36864;DHT22;22793;51.148;6.948;2023-05-07T22:33:59;20.60;99.90
36864;DHT22;22793;51.148;6.948;2023-05-07T22:36:25;20.60;99.90
36864;DHT22;22793;51.148;6.948;2023-05-07T22:38:51;20.60;99.90
36864;DHT22;22793;51.148;6.948;2023-05-07T22:41:17;20.60;99.90
36864;DHT22;22793;51.148;6.948;2023-05-07T22:43:42;20.50;99.90
36864;DHT22;22793;51.148;6.948;2023-05-07T22:46:08;20.50;99.90
36864;DHT22;22793;51.148;6.948;2023-05-07T22:48:34;20.50;99.90
36864;DHT22;22793;51.148;6.948;2023-05-07T22:50:59;20.50;99.90
36864;DHT22;22793;51.148;6.948;2023-05-07T22:53:25;20.50;99.90
36864;DHT22;22793;51.148;6.948;2023-05-07T22:55:50;20.50;99.90
36864;DHT22;22793;51.148;6.948;2023-05-07T22:58:16;20.50;99.90
36864;DHT22;22793;51.148;6.948;2023-05-07T23:00:42;20.50;99.90
36864;DHT22;22793;51.148;6.948;2023-05-07T23:03:07;20.40;99.90
36864;DHT22;22793;51.148;6.948;2023-05-07T23:05:33;20.50;99.90
36864;DHT22;22793;51.148;6.948;2023-05-07T23:07:59;20.50;99.90
36864;DHT22;22793;51.148;6.948;2023-05-07T23:10:24;20.50;99.90
36864;DHT22;22793;51.148;6.948;2023-05-07T23:12:50;20.50;99.90
36864;DHT22;22793;51.148;6.948;2023-05-07T23:15:16;20.50;99.90
36864;DHT22;22793;51.148;6.948;2023-05-07T23:17:42;20.50;99.90
36864;DHT22;22793;51.148;6.948;2023-05-07T23:20:09;20.40;99.90
36864;DHT22;22793;51.148;6.948;2023-05-07T23:22:35;20.40;99.90
36864;DHT22;22793;51.148;6.948;2023-05-07T23:25:01;20.40;99.90
36864;DHT22;22793;51.148;6.948;2023-05-07T23:27:27;20.40;99.90
36864;DHT22;22793;51.148;6.948;2023-05-07T23:29:52;20.40;99.90
36864;DHT22;22793;51.148;6.948;2023-05-07T23:32:18;20.40;99.90
36864;DHT22;22793;51.148;6.948;2023-05-07T23:34:47;20.40;99.90
36864;DHT22;22793;51.148;6.948;2023-05-07T23:37:13;20.50;99.90
36864;DHT22;22793;51.148;6.948;2023-05-07T23:39:38;20.50;99.90
36864;DHT22;22793;51.148;6.948;2023-05-07T23:42:04;20.40;99.90
36864;DHT22;22793;51.148;6.948;2023-05-07T23:44:30;20.50;99.90
36864;DHT22;22793;51.148;6.948;2023-05-07T23:46:55;20.50;99.90
36864;DHT22;22793;51.148;6.948;2023-05-07T23:49:21;20.50;99.90
36864;DHT22;22793;51.148;6.948;2023-05-07T23:51:47;20.50;99.90
36864;DHT22;22793;51.148;6.948;2023-05-07T23:54:12;20.50;99.90
36864;DHT22;22793;51.148;6.948;2023-05-07T23:56:38;20.50;99.90
36864;DHT22;22793;51.148;6.948;2023-05-07T23:59:03;20.60;99.90
